createdAt,value
2017-03-19T08:23:58.478Z,946.91
2017-03-19T08:24:58.464Z,946.88
2017-03-19T08:25:58.446Z,946.81
2017-03-19T08:26:58.429Z,946.79
2017-03-19T08:27:58.415Z,946.72
2017-03-19T08:28:58.400Z,946.75
2017-03-19T08:29:58.391Z,946.74
2017-03-19T08:30:58.372Z,946.72
2017-03-19T08:31:58.357Z,946.66
2017-03-19T08:32:58.345Z,946.64
2017-03-19T08:33:58.331Z,946.66
2017-03-19T08:34:58.318Z,946.69
2017-03-19T08:35:58.306Z,946.67
2017-03-19T08:36:58.292Z,946.68
2017-03-19T08:37:58.278Z,946.7
2017-03-19T08:38:58.267Z,946.7
2017-03-19T08:39:58.256Z,946.69
2017-03-19T08:40:58.244Z,946.66
2017-03-19T08:41:58.236Z,946.64
2017-03-19T08:42:58.219Z,946.68
2017-03-19T08:43:58.206Z,946.69
2017-03-19T08:44:58.196Z,946.64
2017-03-19T08:45:58.183Z,946.64
2017-03-19T08:46:58.171Z,946.62
2017-03-19T08:47:58.162Z,946.6
2017-03-19T08:48:58.150Z,946.55
2017-03-19T08:49:58.139Z,946.54
2017-03-19T08:50:58.160Z,946.54
2017-03-19T08:51:58.118Z,946.48
2017-03-19T08:52:58.106Z,946.49
2017-03-19T08:53:58.094Z,946.46
2017-03-19T08:54:58.117Z,946.5
2017-03-19T08:55:58.074Z,946.45
2017-03-19T08:56:58.063Z,946.46
2017-03-19T08:57:58.052Z,946.48
2017-03-19T08:58:58.040Z,946.5
2017-03-19T08:59:58.031Z,946.55
2017-03-19T09:00:58.019Z,946.47
2017-03-19T09:01:58.010Z,946.43
2017-03-19T09:02:58.001Z,946.42
2017-03-19T09:03:57.988Z,946.49
2017-03-19T09:04:57.978Z,946.47
2017-03-19T09:05:57.967Z,946.48
2017-03-19T09:06:57.956Z,946.44
2017-03-19T09:07:57.946Z,946.37
2017-03-19T09:08:57.937Z,946.44
2017-03-19T09:09:57.926Z,946.4
2017-03-19T09:10:57.915Z,946.43
2017-03-19T09:11:57.905Z,946.37
2017-03-19T09:12:57.894Z,946.4
2017-03-19T09:13:57.884Z,946.4
2017-03-19T09:14:57.872Z,946.39
2017-03-19T09:15:57.863Z,946.35
2017-03-19T09:16:57.854Z,946.31
2017-03-19T09:17:57.843Z,946.28
2017-03-19T09:18:57.833Z,946.29
2017-03-19T09:19:57.822Z,946.3
2017-03-19T09:20:57.812Z,946.3
2017-03-19T09:21:57.802Z,946.35
2017-03-19T09:22:57.792Z,946.28
2017-03-19T09:23:57.781Z,946.28
2017-03-19T09:24:57.772Z,946.26
2017-03-19T09:25:57.761Z,946.22
2017-03-19T09:26:57.751Z,946.17
2017-03-19T09:27:57.746Z,946.16
2017-03-19T09:28:57.730Z,946.19
2017-03-19T09:29:57.720Z,946.15
2017-03-19T09:30:57.709Z,946.19
2017-03-19T09:31:57.700Z,946.15
2017-03-19T09:32:57.689Z,946.12
2017-03-19T09:33:57.680Z,946.15
2017-03-19T09:34:57.669Z,946.13
2017-03-19T09:35:57.660Z,946.05
2017-03-19T09:36:57.648Z,945.99
2017-03-19T09:37:57.640Z,945.89
2017-03-19T09:38:57.628Z,945.64
2017-03-19T09:39:57.618Z,945.73
2017-03-19T09:40:57.608Z,945.92
2017-03-19T09:41:57.598Z,946.08
2017-03-19T09:42:57.588Z,946.07
2017-03-19T09:43:57.576Z,946.09
2017-03-19T09:44:57.568Z,946.09
2017-03-19T09:45:57.558Z,946.04
2017-03-19T09:46:57.544Z,946.15
2017-03-19T09:47:57.534Z,946.04
2017-03-19T09:48:57.526Z,946
2017-03-19T09:49:57.516Z,946.02
2017-03-19T09:50:57.503Z,946.03
2017-03-19T09:51:57.494Z,946.04
2017-03-19T09:52:57.484Z,946.07
2017-03-19T09:53:57.475Z,946.07
2017-03-19T09:54:57.463Z,946.05
2017-03-19T09:55:57.453Z,946.01
2017-03-19T09:56:57.442Z,946.04
2017-03-19T09:57:57.435Z,946.03
2017-03-19T09:58:57.425Z,945.97
2017-03-19T09:59:57.414Z,945.99
2017-03-19T10:00:57.403Z,945.98
2017-03-19T10:01:57.393Z,946.01
2017-03-19T10:02:57.383Z,946.02
2017-03-19T10:03:57.377Z,946.1
2017-03-19T10:04:57.364Z,946.08
2017-03-19T10:05:57.353Z,946.02
2017-03-19T10:06:57.376Z,945.94
2017-03-19T10:07:57.334Z,945.85
2017-03-19T10:08:57.323Z,945.81
2017-03-19T10:09:57.313Z,945.9
2017-03-19T10:10:57.303Z,945.89
2017-03-19T10:11:57.297Z,945.88
2017-03-19T10:12:57.286Z,945.91
2017-03-19T10:13:57.276Z,945.9
2017-03-19T10:14:57.266Z,945.9
2017-03-19T10:15:57.290Z,945.93
2017-03-19T10:16:57.246Z,945.94
2017-03-19T10:17:57.237Z,945.98
2017-03-19T10:18:57.227Z,945.96
2017-03-19T10:19:57.218Z,945.93
2017-03-19T10:20:57.252Z,945.9
2017-03-19T10:21:57.197Z,945.91
2017-03-19T10:22:57.189Z,945.88
2017-03-19T10:23:57.179Z,945.86
2017-03-19T10:24:57.169Z,945.88
2017-03-19T10:25:57.159Z,945.84
2017-03-19T10:26:57.150Z,945.87
2017-03-19T10:27:57.140Z,945.79
2017-03-19T10:28:57.128Z,945.85
2017-03-19T10:29:57.160Z,945.82
2017-03-19T10:30:57.109Z,945.81
2017-03-19T10:31:57.101Z,945.75
2017-03-19T10:32:57.091Z,945.76
2017-03-19T10:33:57.086Z,945.78
2017-03-19T10:34:57.071Z,945.79
2017-03-19T10:35:57.063Z,945.71
2017-03-19T10:36:57.053Z,945.76
2017-03-19T10:37:57.042Z,945.77
2017-03-19T10:38:57.032Z,945.74
2017-03-19T10:39:57.023Z,945.76
2017-03-19T10:40:57.014Z,945.73
2017-03-19T10:41:57.003Z,945.7
2017-03-19T10:42:57.027Z,945.67
2017-03-19T10:43:56.984Z,945.61
2017-03-19T10:44:56.975Z,945.63
2017-03-19T10:45:56.964Z,945.62
2017-03-19T10:46:56.955Z,945.65
2017-03-19T10:47:56.946Z,945.65
2017-03-19T10:48:56.935Z,945.67
2017-03-19T10:49:56.927Z,945.61
2017-03-19T10:50:56.918Z,945.68
2017-03-19T10:51:56.907Z,945.6
2017-03-19T10:52:56.897Z,945.56
2017-03-19T10:53:56.886Z,945.63
2017-03-19T10:54:56.877Z,945.62
2017-03-19T10:55:56.869Z,945.59
2017-03-19T10:56:56.859Z,945.53
2017-03-19T10:57:56.849Z,945.53
2017-03-19T10:58:56.853Z,945.54
2017-03-19T10:59:56.832Z,945.5
2017-03-19T11:00:56.820Z,945.51
2017-03-19T11:01:56.812Z,945.5
2017-03-19T11:02:56.803Z,945.53
2017-03-19T11:03:56.793Z,945.55
2017-03-19T11:04:56.783Z,945.55
2017-03-19T11:05:56.773Z,945.49
2017-03-19T11:06:56.765Z,945.48
2017-03-19T11:07:56.756Z,945.46
2017-03-19T11:08:56.746Z,945.47
2017-03-19T11:09:56.737Z,945.49
2017-03-19T11:10:56.728Z,945.37
2017-03-19T11:11:56.719Z,945.43
2017-03-19T11:12:56.710Z,945.37
2017-03-19T11:13:56.710Z,945.32
2017-03-19T11:14:56.692Z,945.32
2017-03-19T11:15:56.683Z,945.27
2017-03-19T11:16:56.675Z,945.24
2017-03-19T11:17:56.667Z,945.23
2017-03-19T11:18:56.655Z,945.23
2017-03-19T11:19:56.648Z,945.22
2017-03-19T11:20:56.639Z,945.21
2017-03-19T11:21:56.630Z,945.22
2017-03-19T11:22:56.621Z,945.22
2017-03-19T11:23:56.610Z,945.21
2017-03-19T11:24:56.604Z,945.15
2017-03-19T11:25:56.593Z,945.19
2017-03-19T11:26:56.586Z,945.18
2017-03-19T11:27:56.578Z,945.19
2017-03-19T11:28:56.569Z,945.16
2017-03-19T11:29:56.560Z,945.1
2017-03-19T11:30:56.551Z,945.1
2017-03-19T11:31:56.543Z,945.13
2017-03-19T11:32:56.535Z,945.09
2017-03-19T11:33:56.528Z,945.07
2017-03-19T11:34:56.519Z,945.08
2017-03-19T11:35:56.510Z,945.1
2017-03-19T11:36:56.502Z,945.04
2017-03-19T11:37:56.494Z,945.12
2017-03-19T11:38:56.485Z,945.09
2017-03-19T11:39:56.482Z,945.05
2017-03-19T11:40:56.469Z,945.02
2017-03-19T11:41:56.462Z,945
2017-03-19T11:42:56.453Z,945.05
2017-03-19T11:43:56.447Z,944.93
2017-03-19T11:44:56.438Z,944.95
2017-03-19T11:45:56.429Z,944.85
2017-03-19T11:46:56.420Z,944.93
2017-03-19T11:47:56.412Z,944.86
2017-03-19T11:48:56.404Z,944.86
2017-03-19T11:49:56.398Z,944.8
2017-03-19T11:50:56.389Z,944.85
2017-03-19T11:51:56.383Z,944.83
2017-03-19T11:52:56.375Z,944.86
2017-03-19T11:53:56.367Z,944.85
2017-03-19T11:54:56.360Z,944.87
2017-03-19T11:55:56.351Z,944.8
2017-03-19T11:56:56.350Z,944.82
2017-03-19T11:57:56.338Z,944.8
2017-03-19T11:58:56.328Z,944.82
2017-03-19T11:59:56.320Z,944.74
2017-03-19T12:00:56.314Z,944.94
2017-03-19T12:01:56.305Z,944.84
2017-03-19T12:02:56.297Z,944.8
2017-03-19T12:03:56.292Z,944.8
2017-03-19T12:04:56.283Z,944.81
2017-03-19T12:05:56.277Z,944.8
2017-03-19T12:06:56.269Z,944.83
2017-03-19T12:07:56.263Z,944.82
2017-03-19T12:08:56.255Z,944.78
2017-03-19T12:09:56.245Z,944.8
2017-03-19T12:10:56.238Z,944.77
2017-03-19T12:11:56.232Z,944.74
2017-03-19T12:12:56.225Z,944.82
2017-03-19T12:13:56.217Z,944.8
2017-03-19T12:14:56.211Z,944.79
2017-03-19T12:15:56.203Z,944.73
2017-03-19T12:16:56.193Z,944.88
2017-03-19T12:17:56.188Z,944.84
2017-03-19T12:18:56.181Z,944.92
2017-03-19T12:19:56.175Z,944.82
2017-03-19T12:20:56.167Z,944.82
2017-03-19T12:21:56.159Z,944.83
2017-03-19T12:22:56.152Z,944.78
2017-03-19T12:23:56.144Z,944.8
2017-03-19T12:24:56.138Z,944.76
2017-03-19T12:25:56.129Z,944.83
2017-03-19T12:26:56.122Z,944.7
2017-03-19T12:27:56.116Z,944.78
2017-03-19T12:28:56.109Z,944.76
2017-03-19T12:29:56.100Z,944.74
2017-03-19T12:30:56.094Z,944.76
2017-03-19T12:31:56.085Z,944.74
2017-03-19T12:32:56.079Z,944.76
2017-03-19T12:33:56.078Z,944.72
2017-03-19T12:34:56.064Z,944.61
2017-03-19T12:35:56.056Z,944.68
2017-03-19T12:36:56.049Z,944.75
2017-03-19T12:37:56.041Z,944.72
2017-03-19T12:38:56.034Z,944.71
2017-03-19T12:39:56.027Z,944.65
2017-03-19T12:40:56.019Z,944.63
2017-03-19T12:41:56.012Z,944.64
2017-03-19T12:42:56.006Z,944.66
2017-03-19T12:43:55.997Z,944.69
2017-03-19T12:44:55.989Z,944.5
2017-03-19T12:45:55.982Z,944.69
2017-03-19T12:46:55.973Z,944.68
2017-03-19T12:47:55.967Z,944.69
2017-03-19T12:48:55.961Z,944.57
2017-03-19T12:49:55.952Z,944.69
2017-03-19T12:50:55.944Z,944.66
2017-03-19T12:51:55.938Z,944.72
2017-03-19T12:52:55.930Z,944.68
2017-03-19T12:53:55.921Z,944.67
2017-03-19T12:54:55.914Z,944.72
2017-03-19T12:55:55.906Z,944.74
2017-03-19T12:56:55.899Z,944.67
2017-03-19T12:57:55.891Z,944.67
2017-03-19T12:58:55.884Z,944.71
2017-03-19T12:59:55.878Z,944.75
2017-03-19T13:00:55.869Z,944.62
2017-03-19T13:01:55.862Z,944.69
2017-03-19T13:02:55.855Z,944.65
2017-03-19T13:03:55.848Z,944.72
2017-03-19T13:04:55.841Z,944.59
2017-03-19T13:05:55.832Z,944.75
2017-03-19T13:06:55.827Z,944.67
2017-03-19T13:07:55.819Z,944.66
2017-03-19T13:08:55.812Z,944.62
2017-03-19T13:09:55.806Z,944.56
2017-03-19T13:10:55.798Z,944.68
2017-03-19T13:11:55.790Z,944.63
2017-03-19T13:12:55.786Z,944.63
2017-03-19T13:13:55.778Z,944.71
2017-03-19T13:14:55.770Z,944.61
2017-03-19T13:15:55.762Z,944.6
2017-03-19T13:16:55.755Z,944.58
2017-03-19T13:17:55.749Z,944.61
2017-03-19T13:18:55.740Z,944.62
2017-03-19T13:19:55.733Z,944.7
2017-03-19T13:20:55.725Z,944.68
2017-03-19T13:21:55.720Z,944.72
2017-03-19T13:22:55.711Z,944.71
2017-03-19T13:23:55.706Z,944.61
2017-03-19T13:24:55.700Z,944.61
2017-03-19T13:25:55.692Z,944.64
2017-03-19T13:26:55.685Z,944.67
2017-03-19T13:27:55.677Z,944.68
2017-03-19T13:28:55.669Z,944.73
2017-03-19T13:29:55.661Z,944.63
2017-03-19T13:30:55.654Z,944.55
2017-03-19T13:31:55.647Z,944.65
2017-03-19T13:32:55.642Z,944.64
2017-03-19T13:33:55.633Z,944.73
2017-03-19T13:34:55.626Z,944.66
2017-03-19T13:35:55.619Z,944.7
2017-03-19T13:36:55.612Z,944.67
2017-03-19T13:37:55.605Z,944.62
2017-03-19T13:38:55.597Z,944.55
2017-03-19T13:39:55.589Z,944.56
2017-03-19T13:40:55.581Z,944.53
2017-03-19T13:41:55.574Z,944.54
2017-03-19T13:42:55.569Z,944.52
2017-03-19T13:43:55.562Z,944.41
2017-03-19T13:44:55.554Z,944.4
2017-03-19T13:45:55.547Z,944.46
2017-03-19T13:46:55.539Z,944.5
2017-03-19T13:47:55.533Z,944.55
2017-03-19T13:48:55.524Z,944.55
2017-03-19T13:49:55.518Z,944.52
2017-03-19T13:50:55.509Z,944.56
2017-03-19T13:51:55.502Z,944.58
2017-03-19T13:52:55.495Z,944.51
2017-03-19T13:53:55.489Z,944.55
2017-03-19T13:54:55.482Z,944.56
2017-03-19T13:55:55.473Z,944.46
2017-03-19T13:56:55.466Z,944.6
2017-03-19T13:57:55.460Z,944.46
2017-03-19T13:58:55.453Z,944.54
2017-03-19T13:59:55.445Z,944.44
2017-03-19T14:00:55.438Z,944.44
2017-03-19T14:01:55.431Z,944.45
2017-03-19T14:02:55.423Z,944.5
2017-03-19T14:03:55.416Z,944.46
2017-03-19T14:04:55.410Z,944.61
2017-03-19T14:05:55.402Z,944.54
2017-03-19T14:06:55.393Z,944.48
2017-03-19T14:07:55.387Z,944.51
2017-03-19T14:08:55.380Z,944.56
2017-03-19T14:09:55.373Z,944.54
2017-03-19T14:10:55.365Z,944.54
2017-03-19T14:11:55.358Z,944.6
2017-03-19T14:12:55.353Z,944.5
2017-03-19T14:13:55.343Z,944.51
2017-03-19T14:14:55.338Z,944.57
2017-03-19T14:15:55.633Z,944.55
2017-03-19T14:16:55.324Z,944.56
2017-03-19T14:17:55.320Z,944.54
2017-03-19T14:18:55.308Z,944.57
2017-03-19T14:19:55.302Z,944.53
2017-03-19T14:20:55.295Z,944.53
2017-03-19T14:21:55.289Z,944.62
2017-03-19T14:22:55.280Z,944.58
2017-03-19T14:23:55.275Z,944.54
2017-03-19T14:24:55.269Z,944.53
2017-03-19T14:25:55.261Z,944.56
2017-03-19T14:26:55.253Z,944.59
2017-03-19T14:27:55.246Z,944.57
2017-03-19T14:28:55.240Z,944.58
2017-03-19T14:29:55.292Z,944.55
2017-03-19T14:30:55.225Z,944.6
2017-03-19T14:31:55.218Z,944.57
2017-03-19T14:32:55.211Z,944.61
2017-03-19T14:33:55.202Z,944.62
2017-03-19T14:34:55.196Z,944.57
2017-03-19T14:35:55.187Z,944.57
2017-03-19T14:36:55.180Z,944.55
2017-03-19T14:37:55.173Z,944.63
2017-03-19T14:38:55.167Z,944.56
2017-03-19T14:39:55.157Z,944.54
2017-03-19T14:40:55.149Z,944.6
2017-03-19T14:41:55.142Z,944.55
2017-03-19T14:42:55.135Z,944.61
2017-03-19T14:43:55.128Z,944.54
2017-03-19T14:44:55.120Z,944.54
2017-03-19T14:45:55.112Z,944.54
2017-03-19T14:46:55.105Z,944.53
2017-03-19T14:47:55.097Z,944.49
2017-03-19T14:48:55.091Z,944.53
2017-03-19T14:49:55.082Z,944.53
2017-03-19T14:50:55.074Z,944.52
2017-03-19T14:51:55.066Z,944.54
2017-03-19T14:52:55.058Z,944.58
2017-03-19T14:53:55.050Z,944.52
2017-03-19T14:54:55.042Z,944.49
2017-03-19T14:55:55.034Z,944.52
2017-03-19T14:56:55.026Z,944.48
2017-03-19T14:57:55.019Z,944.51
2017-03-19T14:58:55.011Z,944.51
2017-03-19T14:59:55.037Z,944.55
2017-03-19T15:00:54.995Z,944.56
2017-03-19T15:01:54.987Z,944.53
2017-03-19T15:02:54.980Z,944.53
2017-03-19T15:03:54.971Z,944.53
2017-03-19T15:04:54.962Z,944.55
2017-03-19T15:05:54.955Z,944.54
2017-03-19T15:06:54.947Z,944.55
2017-03-19T15:07:54.941Z,944.68
2017-03-19T15:08:54.931Z,944.48
2017-03-19T15:09:54.923Z,944.58
2017-03-19T15:10:55.041Z,944.64
2017-03-19T15:11:55.000Z,944.68
2017-03-19T15:12:54.900Z,944.68
2017-03-19T15:13:54.892Z,944.78
2017-03-19T15:14:54.883Z,944.71
2017-03-19T15:15:54.874Z,944.66
2017-03-19T15:16:54.868Z,944.69
2017-03-19T15:17:54.860Z,944.63
2017-03-19T15:18:54.852Z,944.66
2017-03-19T15:19:54.844Z,944.64
2017-03-19T15:20:54.835Z,944.75
2017-03-19T15:21:54.842Z,944.62
2017-03-19T15:22:54.827Z,944.66
2017-03-19T15:23:54.811Z,944.76
2017-03-19T15:24:54.804Z,944.71
2017-03-19T15:25:54.797Z,944.72
2017-03-19T15:26:54.787Z,944.67
2017-03-19T15:27:54.778Z,944.76
2017-03-19T15:28:54.824Z,944.74
2017-03-19T15:29:54.762Z,944.63
2017-03-19T15:30:54.753Z,944.76
2017-03-19T15:31:54.746Z,944.81
2017-03-19T15:32:54.739Z,944.81
2017-03-19T15:33:54.732Z,944.77
2017-03-19T15:34:54.723Z,944.74
2017-03-19T15:35:54.855Z,944.7
2017-03-19T15:36:54.825Z,944.75
2017-03-19T15:37:54.700Z,944.75
2017-03-19T15:38:54.691Z,944.77
2017-03-19T15:39:54.683Z,944.74
2017-03-19T15:40:54.675Z,944.76
2017-03-19T15:41:54.667Z,944.79
2017-03-19T15:42:54.658Z,944.75
2017-03-19T15:43:54.650Z,944.8
2017-03-19T15:44:54.647Z,944.76
2017-03-19T15:45:54.634Z,944.72
2017-03-19T15:46:54.727Z,944.73
2017-03-19T15:47:54.618Z,944.72
2017-03-19T15:48:54.609Z,944.65
2017-03-19T15:49:54.652Z,944.63
2017-03-19T15:50:54.642Z,944.59
2017-03-19T15:51:54.585Z,944.64
2017-03-19T15:52:54.580Z,944.54
2017-03-19T15:53:54.570Z,944.5
2017-03-19T15:54:54.562Z,944.54
2017-03-19T15:55:54.552Z,944.52
2017-03-19T15:56:54.543Z,944.51
2017-03-19T15:57:54.537Z,944.66
2017-03-19T15:58:54.570Z,944.59
2017-03-19T15:59:54.520Z,944.64
2017-03-19T16:00:54.513Z,944.6
2017-03-19T16:01:54.505Z,944.69
2017-03-19T16:02:54.631Z,944.74
2017-03-19T16:03:54.631Z,944.71
2017-03-19T16:04:54.538Z,944.73
2017-03-19T16:05:54.620Z,944.72
2017-03-19T16:06:54.463Z,944.78
2017-03-19T16:07:54.511Z,944.71
2017-03-19T16:08:54.453Z,944.69
2017-03-19T16:09:54.559Z,944.68
2017-03-19T16:10:54.435Z,944.76
2017-03-19T16:11:54.635Z,944.75
2017-03-19T16:12:54.416Z,944.68
2017-03-19T16:13:54.547Z,944.73
2017-03-19T16:14:54.516Z,944.64
2017-03-19T16:15:54.527Z,944.58
2017-03-19T16:16:54.699Z,944.66
2017-03-19T16:17:54.501Z,944.72
2017-03-19T16:18:54.478Z,944.64
2017-03-19T16:19:54.428Z,944.63
2017-03-19T16:20:54.364Z,944.62
2017-03-19T16:21:54.543Z,944.61
2017-03-19T16:22:54.538Z,944.53
2017-03-19T16:23:54.461Z,944.61
2017-03-19T16:24:54.425Z,944.61
2017-03-19T16:25:54.418Z,944.63
2017-03-19T16:26:54.634Z,944.65
2017-03-19T16:27:54.452Z,944.64
2017-03-19T16:28:54.286Z,944.65
2017-03-19T16:29:54.385Z,944.62
2017-03-19T16:30:54.381Z,944.68
2017-03-19T16:31:54.261Z,944.67
2017-03-19T16:32:54.396Z,944.66
2017-03-19T16:33:54.366Z,944.66
2017-03-19T16:34:54.258Z,944.63
2017-03-19T16:35:54.352Z,944.57
2017-03-19T16:36:54.416Z,944.64
2017-03-19T16:37:54.211Z,944.59
2017-03-19T16:38:54.204Z,944.6
2017-03-19T16:39:54.201Z,944.61
2017-03-19T16:40:54.186Z,944.63
2017-03-19T16:41:54.177Z,944.61
2017-03-19T16:42:54.169Z,944.63
2017-03-19T16:43:54.161Z,944.62
2017-03-19T16:44:54.153Z,944.56
2017-03-19T16:45:54.145Z,944.66
2017-03-19T16:46:54.322Z,944.66
2017-03-19T16:47:54.245Z,944.63
2017-03-19T16:48:54.128Z,944.6
2017-03-19T16:49:54.113Z,944.64
2017-03-19T16:50:54.104Z,944.65
2017-03-19T16:51:54.185Z,944.67
2017-03-19T16:52:54.113Z,944.62
2017-03-19T16:53:54.126Z,944.69
2017-03-19T16:54:54.086Z,944.68
2017-03-19T16:55:54.194Z,944.72
2017-03-19T16:56:54.053Z,944.66
2017-03-19T16:57:54.148Z,944.69
2017-03-19T16:58:54.036Z,944.7
2017-03-19T16:59:54.029Z,944.7
2017-03-19T17:00:54.020Z,944.69
2017-03-19T17:01:54.065Z,944.69
2017-03-19T17:02:54.003Z,944.69
2017-03-19T17:03:53.995Z,944.7
2017-03-19T17:04:53.986Z,944.65
2017-03-19T17:05:54.031Z,944.73
2017-03-19T17:06:53.979Z,944.62
2017-03-19T17:07:54.086Z,944.66
2017-03-19T17:08:53.982Z,944.75
2017-03-19T17:09:53.944Z,944.7
2017-03-19T17:10:53.942Z,944.73
2017-03-19T17:11:54.076Z,944.76
2017-03-19T17:12:53.973Z,944.72
2017-03-19T17:13:54.005Z,944.75
2017-03-19T17:14:53.957Z,944.73
2017-03-19T17:15:54.098Z,944.69
2017-03-19T17:16:54.075Z,944.75
2017-03-19T17:17:54.066Z,944.71
2017-03-19T17:18:54.055Z,944.67
2017-03-19T17:19:54.024Z,944.74
2017-03-19T17:20:53.976Z,944.75
2017-03-19T17:21:53.896Z,944.76
2017-03-19T17:22:53.847Z,944.79
2017-03-19T17:23:53.971Z,944.78
2017-03-19T17:24:53.870Z,944.81
2017-03-19T17:25:53.876Z,944.77
2017-03-19T17:26:53.875Z,944.74
2017-03-19T17:27:54.020Z,944.72
2017-03-19T17:28:53.783Z,944.8
2017-03-19T17:29:53.924Z,944.67
2017-03-19T17:30:53.773Z,944.64
2017-03-19T17:31:53.761Z,944.56
2017-03-19T17:32:53.749Z,944.54
2017-03-19T17:33:53.745Z,944.59
2017-03-19T17:34:53.732Z,944.58
2017-03-19T17:35:53.731Z,944.5
2017-03-19T17:36:53.715Z,944.49
2017-03-19T17:37:53.707Z,944.49
2017-03-19T17:38:53.697Z,944.48
2017-03-19T17:39:53.816Z,944.49
2017-03-19T17:40:53.698Z,944.47
2017-03-19T17:41:53.673Z,944.45
2017-03-19T17:42:53.730Z,944.45
2017-03-19T17:43:53.738Z,944.45
2017-03-19T17:44:53.646Z,944.47
2017-03-19T17:45:53.636Z,944.46
2017-03-19T17:46:53.627Z,944.47
2017-03-19T17:47:53.910Z,944.48
2017-03-19T17:48:53.612Z,944.47
2017-03-19T17:49:53.737Z,944.41
2017-03-19T17:50:53.594Z,944.41
2017-03-19T17:51:53.608Z,944.41
2017-03-19T17:52:53.578Z,944.37
2017-03-19T17:53:53.646Z,944.38
2017-03-19T17:54:53.676Z,944.38
2017-03-19T17:55:53.683Z,944.43
2017-03-19T17:56:53.669Z,944.39
2017-03-19T17:57:53.822Z,944.38
2017-03-19T17:58:53.566Z,944.33
2017-03-19T17:59:53.561Z,944.37
2017-03-19T18:00:53.611Z,944.44
2017-03-19T18:01:53.598Z,944.36
2017-03-19T18:02:53.721Z,944.42
2017-03-19T18:03:53.514Z,944.43
2017-03-19T18:04:53.472Z,944.31
2017-03-19T18:05:53.464Z,944.42
2017-03-19T18:06:53.457Z,944.27
2017-03-19T18:07:53.448Z,944.33
2017-03-19T18:08:53.444Z,944.33
2017-03-19T18:09:53.430Z,944.4
2017-03-19T18:10:53.420Z,944.28
2017-03-19T18:11:53.411Z,944.31
2017-03-19T18:12:53.404Z,944.45
2017-03-19T18:13:53.395Z,944.36
2017-03-19T18:14:53.386Z,944.35
2017-03-19T18:15:53.377Z,944.26
2017-03-19T18:16:53.368Z,944.37
2017-03-19T18:17:53.358Z,944.37
2017-03-19T18:18:53.350Z,944.41
2017-03-19T18:19:53.341Z,944.46
2017-03-19T18:20:53.333Z,944.46
2017-03-19T18:21:53.325Z,944.36
2017-03-19T18:22:53.315Z,944.46
2017-03-19T18:23:53.306Z,944.44
2017-03-19T18:24:53.297Z,944.49
2017-03-19T18:25:53.287Z,944.5
2017-03-19T18:26:53.278Z,944.46
2017-03-19T18:27:53.271Z,944.45
2017-03-19T18:28:53.261Z,944.57
2017-03-19T18:29:53.251Z,944.65
2017-03-19T18:30:53.243Z,944.58
2017-03-19T18:31:53.235Z,944.6
2017-03-19T18:32:53.227Z,944.53
2017-03-19T18:33:53.218Z,944.57
2017-03-19T18:34:53.209Z,944.63
2017-03-19T18:35:53.198Z,944.67
2017-03-19T18:36:53.189Z,944.74
2017-03-19T18:37:53.181Z,944.73
2017-03-19T18:38:53.172Z,944.74
2017-03-19T18:39:53.180Z,944.8
2017-03-19T18:40:53.154Z,944.81
2017-03-19T18:41:53.145Z,944.81
2017-03-19T18:42:53.167Z,944.88
2017-03-19T18:43:53.129Z,944.92
2017-03-19T18:44:53.118Z,944.95
2017-03-19T18:45:53.221Z,944.92
2017-03-19T18:46:53.101Z,944.92
2017-03-19T18:47:53.176Z,944.94
2017-03-19T18:48:53.082Z,944.98
2017-03-19T18:49:53.074Z,944.88
2017-03-19T18:50:53.064Z,944.81
2017-03-19T18:51:53.054Z,944.8
2017-03-19T18:52:53.047Z,944.74
2017-03-19T18:53:53.073Z,944.66
2017-03-19T18:54:53.029Z,944.66
2017-03-19T18:55:53.019Z,944.64
2017-03-19T18:56:53.011Z,944.64
2017-03-19T18:57:53.002Z,944.6
2017-03-19T18:58:52.992Z,944.71
2017-03-19T18:59:52.983Z,944.7
2017-03-19T19:00:52.975Z,944.69
2017-03-19T19:01:53.004Z,944.68
2017-03-19T19:02:52.957Z,944.68
2017-03-19T19:03:52.948Z,944.7
2017-03-19T19:04:52.938Z,944.74
2017-03-19T19:05:52.931Z,944.72
2017-03-19T19:06:52.920Z,944.75
2017-03-19T19:07:52.912Z,944.72
2017-03-19T19:08:52.903Z,944.82
2017-03-19T19:09:52.892Z,944.84
2017-03-19T19:10:52.883Z,944.8
2017-03-19T19:11:52.985Z,944.86
2017-03-19T19:12:52.868Z,944.84
2017-03-19T19:13:52.966Z,944.99
2017-03-19T19:14:52.849Z,944.92
2017-03-19T19:15:52.839Z,944.97
2017-03-19T19:16:52.831Z,945.02
2017-03-19T19:17:52.822Z,944.96
2017-03-19T19:18:52.813Z,944.98
2017-03-19T19:19:52.804Z,945
2017-03-19T19:20:52.794Z,944.99
2017-03-19T19:21:52.785Z,944.95
2017-03-19T19:22:52.807Z,944.96
2017-03-19T19:23:52.769Z,944.96
2017-03-19T19:24:52.758Z,944.93
2017-03-19T19:25:52.787Z,944.97
2017-03-19T19:26:52.739Z,945
2017-03-19T19:27:52.735Z,945.05
2017-03-19T19:28:52.723Z,945
2017-03-19T19:29:52.714Z,944.96
2017-03-19T19:30:52.740Z,944.95
2017-03-19T19:31:52.697Z,944.91
2017-03-19T19:32:52.688Z,944.9
2017-03-19T19:33:52.678Z,944.87
2017-03-19T19:34:52.670Z,944.8
2017-03-19T19:35:52.659Z,944.79
2017-03-19T19:36:52.650Z,944.81
2017-03-19T19:37:52.675Z,944.78
2017-03-19T19:38:52.632Z,944.74
2017-03-19T19:39:52.624Z,944.82
2017-03-19T19:40:52.648Z,944.81
2017-03-19T19:41:52.606Z,944.79
2017-03-19T19:42:52.596Z,944.81
2017-03-19T19:43:52.588Z,944.9
2017-03-19T19:44:52.578Z,944.8
2017-03-19T19:45:52.627Z,944.73
2017-03-19T19:46:52.559Z,944.85
2017-03-19T19:47:52.565Z,944.83
2017-03-19T19:48:52.541Z,944.81
2017-03-19T19:49:52.530Z,944.76
2017-03-19T19:50:52.522Z,944.76
2017-03-19T19:51:52.593Z,944.79
2017-03-19T19:52:52.507Z,944.77
2017-03-19T19:53:52.496Z,944.79
2017-03-19T19:54:52.489Z,944.75
2017-03-19T19:55:52.477Z,944.7
2017-03-19T19:56:52.588Z,944.75
2017-03-19T19:57:52.461Z,944.78
2017-03-19T19:58:52.451Z,944.83
2017-03-19T19:59:52.441Z,944.82
2017-03-19T20:00:52.431Z,944.87
2017-03-19T20:01:52.422Z,944.82
2017-03-19T20:02:52.413Z,944.84
2017-03-19T20:03:52.509Z,944.86
2017-03-19T20:04:52.396Z,944.92
2017-03-19T20:05:52.387Z,944.85
2017-03-19T20:06:52.377Z,944.85
2017-03-19T20:07:52.369Z,944.93
2017-03-19T20:08:52.461Z,944.89
2017-03-19T20:09:52.349Z,945.02
2017-03-19T20:10:52.340Z,945.01
2017-03-19T20:11:52.329Z,944.99
2017-03-19T20:12:52.375Z,945.09
2017-03-19T20:13:52.311Z,944.99
2017-03-19T20:14:52.304Z,945.03
2017-03-19T20:15:52.292Z,944.99
2017-03-19T20:16:52.285Z,944.91
2017-03-19T20:17:52.276Z,944.94
2017-03-19T20:18:52.266Z,945.02
2017-03-19T20:19:52.289Z,945.03
2017-03-19T20:20:52.246Z,945.02
2017-03-19T20:21:52.238Z,944.98
2017-03-19T20:22:52.228Z,944.94
2017-03-19T20:23:52.223Z,944.95
2017-03-19T20:24:52.213Z,944.96
2017-03-19T20:25:52.200Z,945.05
2017-03-19T20:26:52.190Z,944.99
2017-03-19T20:27:52.181Z,944.99
2017-03-19T20:28:52.172Z,945.05
2017-03-19T20:29:52.164Z,944.96
2017-03-19T20:30:52.153Z,945.02
2017-03-19T20:31:52.145Z,945.01
2017-03-19T20:32:52.136Z,944.99
2017-03-19T20:33:52.125Z,945.02
2017-03-19T20:34:52.117Z,944.93
2017-03-19T20:35:52.109Z,945
2017-03-19T20:36:52.098Z,944.96
2017-03-19T20:37:52.088Z,945.03
2017-03-19T20:38:52.079Z,945
2017-03-19T20:39:52.071Z,944.95
2017-03-19T20:40:52.062Z,944.99
2017-03-19T20:41:52.050Z,944.96
2017-03-19T20:42:52.041Z,945.04
2017-03-19T20:43:52.033Z,945.03
2017-03-19T20:44:52.023Z,945.12
2017-03-19T20:45:52.013Z,945.02
2017-03-19T20:46:52.005Z,945.01
2017-03-19T20:47:51.996Z,945.01
2017-03-19T20:48:51.986Z,945.02
2017-03-19T20:49:51.976Z,945.05
2017-03-19T20:50:51.967Z,945.07
2017-03-19T20:51:51.958Z,945.1
2017-03-19T20:52:51.948Z,945.1
2017-03-19T20:53:51.938Z,945.03
2017-03-19T20:54:51.930Z,945.11